Time,TemperatureF,DewpointF,PressureIn,WindDirection,WindDirectionDegrees,WindSpeedMPH,WindSpeedGustMPH,Humidity,HourlyPrecipIn,Conditions,Clouds,dailyrainin,SolarRadiationWatts/m^2,SoftwareType,DateUTC
2013-03-30 00:02:00,48.0,46.0,-100.00,ESE,117,0.0,2.0,92,0.00,,,0.01,1.000000,,2013-03-30 07:02:00,
2013-03-30 01:32:00,45.0,44.0,-100.00,East,93,0.0,2.0,96,-99.99,,,0.01,1.000000,,2013-03-30 08:32:00,
2013-03-30 01:42:00,45.0,44.0,-100.00,East,93,0.0,2.0,96,-99.99,,,0.01,1.000000,,2013-03-30 08:42:00,
2013-03-30 01:53:00,45.0,44.0,-100.00,East,93,0.0,2.0,96,-99.99,,,0.01,1.000000,,2013-03-30 08:53:00,
2013-03-30 02:02:00,45.0,44.0,-100.00,East,93,0.0,2.0,96,-99.99,,,0.01,1.000000,,2013-03-30 09:02:00,
2013-03-30 03:33:00,44.0,43.0,-100.00,SSE,167,1.0,3.0,97,-99.99,,,0.01,1.000000,,2013-03-30 10:33:00,
2013-03-30 03:42:00,44.0,43.0,-100.00,SSE,167,1.0,3.0,97,-99.99,,,0.01,1.000000,,2013-03-30 10:42:00,
2013-03-30 03:52:00,44.0,43.0,-100.00,SSE,167,1.0,3.0,97,-99.99,,,0.01,1.000000,,2013-03-30 10:52:00,
2013-03-30 04:03:00,44.0,43.0,-100.00,SSE,167,1.0,3.0,97,-99.99,,,0.01,1.000000,,2013-03-30 11:03:00,
2013-03-30 04:33:00,43.0,42.0,-100.00,SW,221,2.0,4.0,97,0.00,,,0.01,1.000000,,2013-03-30 11:33:00,
2013-03-30 04:43:00,43.0,42.0,-100.00,SW,221,2.0,4.0,97,0.00,,,0.01,1.000000,,2013-03-30 11:43:00,
2013-03-30 04:53:00,43.0,42.0,-100.00,SW,221,2.0,4.0,97,0.00,,,0.01,1.000000,,2013-03-30 11:53:00,
2013-03-30 05:02:00,43.0,42.0,-100.00,SW,221,2.0,4.0,97,0.00,,,0.01,1.000000,,2013-03-30 12:02:00,
2013-03-30 05:33:00,42.0,41.0,-100.00,NNW,329,1.0,2.0,97,0.00,,,0.00,1.000000,,2013-03-30 12:33:00,
2013-03-30 05:42:00,42.0,41.0,-100.00,NNW,329,1.0,2.0,97,0.00,,,0.00,1.000000,,2013-03-30 12:42:00,
2013-03-30 05:53:00,42.0,41.0,-100.00,NNW,329,1.0,2.0,97,0.00,,,0.00,1.000000,,2013-03-30 12:53:00,
2013-03-30 06:02:00,42.0,41.0,-100.00,NNW,329,1.0,2.0,97,0.00,,,0.00,1.000000,,2013-03-30 13:02:00,
2013-03-30 06:32:00,42.0,41.0,-100.00,South,169,2.0,4.0,97,0.00,,,0.00,1.000000,,2013-03-30 13:32:00,
2013-03-30 06:43:00,42.0,41.0,-100.00,South,169,2.0,4.0,97,0.00,,,0.00,1.000000,,2013-03-30 13:43:00,
2013-03-30 06:52:00,42.0,41.0,-100.00,South,169,2.0,4.0,97,0.00,,,0.00,1.000000,,2013-03-30 13:52:00,
2013-03-30 07:02:00,42.0,41.0,-100.00,South,169,2.0,4.0,97,0.00,,,0.00,1.000000,,2013-03-30 14:02:00,
2013-03-30 07:32:00,42.0,41.0,-100.00,West,280,2.0,5.0,97,0.00,,,-99.99,3.000000,,2013-03-30 14:32:00,
2013-03-30 07:42:00,42.0,41.0,-100.00,West,280,2.0,5.0,97,0.00,,,-99.99,3.000000,,2013-03-30 14:42:00,
2013-03-30 07:52:00,42.0,41.0,-100.00,West,280,2.0,5.0,97,0.00,,,-99.99,3.000000,,2013-03-30 14:52:00,
2013-03-30 08:02:00,42.0,41.0,-100.00,West,280,2.0,5.0,97,0.00,,,-99.99,3.000000,,2013-03-30 15:02:00,
2013-03-30 08:34:00,42.0,41.0,-100.00,NW,307,1.0,5.0,96,0.00,,,-99.99,21.000000,,2013-03-30 15:34:00,
2013-03-30 08:43:00,42.0,41.0,-100.00,NW,307,1.0,5.0,96,0.00,,,-99.99,21.000000,,2013-03-30 15:43:00,
2013-03-30 08:53:00,42.0,41.0,-100.00,NW,307,1.0,5.0,96,0.00,,,-99.99,21.000000,,2013-03-30 15:53:00,
2013-03-30 09:03:00,42.0,41.0,-100.00,NW,307,1.0,5.0,96,0.00,,,-99.99,21.000000,,2013-03-30 16:03:00,
2013-03-30 09:33:00,49.0,42.0,-100.00,SSW,206,3.0,4.0,78,0.00,,,0.00,179.000000,,2013-03-30 16:33:00,
2013-03-30 09:43:00,49.0,42.0,-100.00,SSW,206,3.0,4.0,78,0.00,,,0.00,179.000000,,2013-03-30 16:43:00,
2013-03-30 09:52:00,49.0,42.0,-100.00,SSW,206,3.0,4.0,78,0.00,,,0.00,179.000000,,2013-03-30 16:52:00,
2013-03-30 10:02:00,49.0,42.0,-100.00,SSW,206,3.0,4.0,78,0.00,,,0.00,179.000000,,2013-03-30 17:02:00,
2013-03-30 10:33:00,56.0,45.0,-100.00,SW,218,3.0,7.0,67,0.00,,,0.00,398.000000,,2013-03-30 17:33:00,
2013-03-30 10:42:00,56.0,45.0,-100.00,SW,218,3.0,7.0,67,0.00,,,0.00,398.000000,,2013-03-30 17:42:00,
2013-03-30 10:52:00,56.0,45.0,-100.00,SW,218,3.0,7.0,67,0.00,,,0.00,398.000000,,2013-03-30 17:52:00,
2013-03-30 11:02:00,56.0,45.0,-100.00,SW,218,3.0,7.0,67,0.00,,,0.00,398.000000,,2013-03-30 18:02:00,
2013-03-30 11:33:00,62.0,45.0,-100.00,SSW,203,3.0,6.0,54,0.00,,,0.00,561.000000,,2013-03-30 18:33:00,
2013-03-30 11:42:00,62.0,45.0,-100.00,SSW,203,3.0,6.0,54,0.00,,,0.00,561.000000,,2013-03-30 18:42:00,
2013-03-30 11:53:00,62.0,45.0,-100.00,SSW,203,3.0,6.0,54,0.00,,,0.00,561.000000,,2013-03-30 18:53:00,
2013-03-30 12:02:00,62.0,45.0,-100.00,SSW,203,3.0,6.0,54,0.00,,,0.00,561.000000,,2013-03-30 19:02:00,
2013-03-30 13:33:00,69.0,44.0,-100.00,ENE,68,11.0,23.0,40,-99.99,,,0.00,740.000000,,2013-03-30 20:33:00,
2013-03-30 13:43:00,69.0,44.0,-100.00,ENE,68,11.0,23.0,40,-99.99,,,0.00,740.000000,,2013-03-30 20:43:00,
2013-03-30 13:53:00,69.0,44.0,-100.00,ENE,68,11.0,23.0,40,-99.99,,,0.00,740.000000,,2013-03-30 20:53:00,
2013-03-30 14:02:00,69.0,44.0,-100.00,ENE,68,11.0,23.0,40,-99.99,,,0.00,740.000000,,2013-03-30 21:02:00,
2013-03-30 14:34:00,71.0,44.0,-100.00,ENE,66,13.0,24.0,38,0.00,,,0.00,745.000000,,2013-03-30 21:34:00,
2013-03-30 14:43:00,71.0,44.0,-100.00,ENE,66,13.0,24.0,38,0.00,,,0.00,745.000000,,2013-03-30 21:43:00,
2013-03-30 14:53:00,71.0,44.0,-100.00,ENE,66,13.0,24.0,38,0.00,,,0.00,745.000000,,2013-03-30 21:53:00,
2013-03-30 15:02:00,71.0,44.0,-100.00,ENE,66,13.0,24.0,38,0.00,,,0.00,745.000000,,2013-03-30 22:02:00,
2013-03-30 15:33:00,73.0,42.0,-100.00,ENE,65,11.0,21.0,33,0.00,,,0.00,689.000000,,2013-03-30 22:33:00,
2013-03-30 15:43:00,73.0,42.0,-100.00,ENE,65,11.0,21.0,33,0.00,,,0.00,689.000000,,2013-03-30 22:43:00,
2013-03-30 15:53:00,73.0,42.0,-100.00,ENE,65,11.0,21.0,33,0.00,,,0.00,689.000000,,2013-03-30 22:53:00,
2013-03-30 16:02:00,73.0,42.0,-100.00,ENE,65,11.0,21.0,33,0.00,,,0.00,689.000000,,2013-03-30 23:02:00,
2013-03-30 16:33:00,74.0,43.0,-100.00,ENE,60,9.0,20.0,33,0.00,,,0.00,585.000000,,2013-03-30 23:33:00,
2013-03-30 16:43:00,74.0,43.0,-100.00,ENE,60,9.0,20.0,33,0.00,,,0.00,585.000000,,2013-03-30 23:43:00,
2013-03-30 16:53:00,74.0,43.0,-100.00,ENE,60,9.0,20.0,33,0.00,,,0.00,585.000000,,2013-03-30 23:53:00,
2013-03-30 17:02:00,74.0,43.0,-100.00,ENE,60,9.0,20.0,33,0.00,,,0.00,585.000000,,2013-03-31 00:02:00,
2013-03-30 17:32:00,74.0,43.0,-100.00,ENE,62,9.0,17.0,33,0.00,,,0.00,439.000000,,2013-03-31 00:32:00,
2013-03-30 17:43:00,74.0,43.0,-100.00,ENE,62,9.0,17.0,33,0.00,,,0.00,439.000000,,2013-03-31 00:43:00,
2013-03-30 17:52:00,74.0,43.0,-100.00,ENE,62,9.0,17.0,33,0.00,,,0.00,439.000000,,2013-03-31 00:52:00,
2013-03-30 18:01:00,74.0,43.0,-100.00,ENE,62,9.0,17.0,33,0.00,,,0.00,439.000000,,2013-03-31 01:01:00,
2013-03-30 18:32:00,73.0,45.0,-100.00,ENE,72,8.0,20.0,37,0.00,,,0.00,269.000000,,2013-03-31 01:32:00,
2013-03-30 18:43:00,73.0,45.0,-100.00,ENE,72,8.0,20.0,37,0.00,,,0.00,269.000000,,2013-03-31 01:43:00,
2013-03-30 18:52:00,73.0,45.0,-100.00,ENE,72,8.0,20.0,37,0.00,,,0.00,269.000000,,2013-03-31 01:52:00,
2013-03-30 19:02:00,73.0,45.0,-100.00,ENE,72,8.0,20.0,37,0.00,,,0.00,269.000000,,2013-03-31 02:02:00,
2013-03-30 19:33:00,65.0,51.0,-100.00,ENE,78,5.0,12.0,60,0.00,,,0.00,97.000000,,2013-03-31 02:33:00,
2013-03-30 19:43:00,65.0,51.0,-100.00,ENE,78,5.0,12.0,60,0.00,,,0.00,97.000000,,2013-03-31 02:43:00,
2013-03-30 19:52:00,65.0,51.0,-100.00,ENE,78,5.0,12.0,60,0.00,,,0.00,97.000000,,2013-03-31 02:52:00,
2013-03-30 20:02:00,65.0,51.0,-100.00,ENE,78,5.0,12.0,60,0.00,,,0.00,97.000000,,2013-03-31 03:02:00,
2013-03-30 20:33:00,57.0,50.0,-100.00,ESE,119,1.0,5.0,78,0.00,,,0.00,5.000000,,2013-03-31 03:33:00,
2013-03-30 21:33:00,54.0,49.0,-100.00,SE,131,1.0,4.0,82,0.00,,,0.00,1.000000,,2013-03-31 04:33:00,
2013-03-30 22:32:00,53.0,48.0,-100.00,ESE,120,2.0,3.0,82,0.00,,,0.00,1.000000,,2013-03-31 05:32:00,
2013-03-30 23:01:00,53.0,48.0,-100.00,ESE,120,2.0,3.0,82,0.00,,,0.00,1.000000,,2013-03-31 06:01:00,
2013-03-30 23:33:00,52.0,46.0,-100.00,SSE,154,1.0,4.0,81,0.00,,,0.00,1.000000,,2013-03-31 06:33:00,
2013-03-30 23:42:00,52.0,46.0,-100.00,SSE,154,1.0,4.0,81,0.00,,,0.00,1.000000,,2013-03-31 06:42:00,
2013-03-30 23:52:00,52.0,46.0,-100.00,SSE,154,1.0,4.0,81,0.00,,,0.00,1.000000,,2013-03-31 06:52:00,